sensor_id;sensor_type;location;lat;lon;timestamp;temperature;humidity
9975;DHT22;5028;50.974;4.968;2023-07-31T00:00:08;16.10;99.90
9975;DHT22;5028;50.974;4.968;2023-07-31T00:02:37;16.10;99.90
9975;DHT22;5028;50.974;4.968;2023-07-31T00:05:08;16.10;99.90
9975;DHT22;5028;50.974;4.968;2023-07-31T00:07:37;16.00;99.90
9975;DHT22;5028;50.974;4.968;2023-07-31T00:10:06;16.10;99.90
9975;DHT22;5028;50.974;4.968;2023-07-31T00:12:35;16.10;99.90
9975;DHT22;5028;50.974;4.968;2023-07-31T00:15:07;16.00;99.90
9975;DHT22;5028;50.974;4.968;2023-07-31T00:17:36;16.10;99.90
9975;DHT22;5028;50.974;4.968;2023-07-31T00:20:05;16.10;99.90
9975;DHT22;5028;50.974;4.968;2023-07-31T00:22:35;16.00;99.90
9975;DHT22;5028;50.974;4.968;2023-07-31T00:25:04;16.10;99.90
9975;DHT22;5028;50.974;4.968;2023-07-31T00:27:33;16.10;99.90
9975;DHT22;5028;50.974;4.968;2023-07-31T00:30:02;16.10;99.90
9975;DHT22;5028;50.974;4.968;2023-07-31T00:32:33;16.10;99.90
9975;DHT22;5028;50.974;4.968;2023-07-31T00:35:02;16.20;99.90
9975;DHT22;5028;50.974;4.968;2023-07-31T00:37:31;16.10;99.90
9975;DHT22;5028;50.974;4.968;2023-07-31T00:39:59;16.20;99.90
9975;DHT22;5028;50.974;4.968;2023-07-31T00:42:31;16.20;99.90
9975;DHT22;5028;50.974;4.968;2023-07-31T00:45:01;16.20;99.90
9975;DHT22;5028;50.974;4.968;2023-07-31T00:47:30;16.20;99.90
9975;DHT22;5028;50.974;4.968;2023-07-31T00:50:00;16.20;99.90
9975;DHT22;5028;50.974;4.968;2023-07-31T00:52:29;16.20;99.90
9975;DHT22;5028;50.974;4.968;2023-07-31T00:54:58;16.20;99.90
9975;DHT22;5028;50.974;4.968;2023-07-31T00:57:27;16.30;99.90
9975;DHT22;5028;50.974;4.968;2023-07-31T00:59:55;16.30;99.90
9975;DHT22;5028;50.974;4.968;2023-07-31T01:02:24;16.30;99.90
9975;DHT22;5028;50.974;4.968;2023-07-31T01:04:53;16.30;99.90
9975;DHT22;5028;50.974;4.968;2023-07-31T01:07:28;16.30;99.90
9975;DHT22;5028;50.974;4.968;2023-07-31T01:10:04;16.30;99.90
9975;DHT22;5028;50.974;4.968;2023-07-31T01:12:37;16.40;99.90
9975;DHT22;5028;50.974;4.968;2023-07-31T01:15:08;16.40;99.90
9975;DHT22;5028;50.974;4.968;2023-07-31T01:17:38;16.40;99.90
9975;DHT22;5028;50.974;4.968;2023-07-31T01:20:11;16.40;99.90
9975;DHT22;5028;50.974;4.968;2023-07-31T01:23:22;16.50;99.90
9975;DHT22;5028;50.974;4.968;2023-07-31T01:26:05;16.50;99.90
9975;DHT22;5028;50.974;4.968;2023-07-31T01:28:43;16.50;99.90
9975;DHT22;5028;50.974;4.968;2023-07-31T01:31:18;16.50;99.90
9975;DHT22;5028;50.974;4.968;2023-07-31T01:33:50;16.50;99.90
9975;DHT22;5028;50.974;4.968;2023-07-31T01:36:18;16.50;99.90
9975;DHT22;5028;50.974;4.968;2023-07-31T01:38:47;16.60;99.90
9975;DHT22;5028;50.974;4.968;2023-07-31T01:41:19;16.60;99.90
9975;DHT22;5028;50.974;4.968;2023-07-31T01:43:47;16.60;99.90
9975;DHT22;5028;50.974;4.968;2023-07-31T01:46:16;16.60;99.90
9975;DHT22;5028;50.974;4.968;2023-07-31T01:48:45;16.70;99.90
9975;DHT22;5028;50.974;4.968;2023-07-31T01:51:14;16.70;99.90
9975;DHT22;5028;50.974;4.968;2023-07-31T01:53:42;16.70;99.90
9975;DHT22;5028;50.974;4.968;2023-07-31T01:56:11;16.70;99.90
9975;DHT22;5028;50.974;4.968;2023-07-31T01:58:41;16.70;99.90
9975;DHT22;5028;50.974;4.968;2023-07-31T02:01:10;16.70;99.90
9975;DHT22;5028;50.974;4.968;2023-07-31T02:03:39;16.70;99.90
9975;DHT22;5028;50.974;4.968;2023-07-31T02:06:09;16.70;99.90
9975;DHT22;5028;50.974;4.968;2023-07-31T02:08:40;16.80;99.90
9975;DHT22;5028;50.974;4.968;2023-07-31T02:11:09;16.80;99.90
9975;DHT22;5028;50.974;4.968;2023-07-31T02:13:38;16.70;99.90
9975;DHT22;5028;50.974;4.968;2023-07-31T02:16:08;16.80;99.90
9975;DHT22;5028;50.974;4.968;2023-07-31T02:18:36;16.70;99.90
9975;DHT22;5028;50.974;4.968;2023-07-31T02:21:05;16.70;99.90
9975;DHT22;5028;50.974;4.968;2023-07-31T02:23:34;16.80;99.90
9975;DHT22;5028;50.974;4.968;2023-07-31T02:26:02;16.70;99.90
9975;DHT22;5028;50.974;4.968;2023-07-31T02:28:30;16.70;99.90
9975;DHT22;5028;50.974;4.968;2023-07-31T02:30:59;16.70;99.90
9975;DHT22;5028;50.974;4.968;2023-07-31T02:33:29;16.70;99.90
9975;DHT22;5028;50.974;4.968;2023-07-31T02:35:59;16.80;99.90
9975;DHT22;5028;50.974;4.968;2023-07-31T02:38:28;16.80;99.90
9975;DHT22;5028;50.974;4.968;2023-07-31T02:40:57;16.80;99.90
9975;DHT22;5028;50.974;4.968;2023-07-31T02:43:25;16.80;99.90
9975;DHT22;5028;50.974;4.968;2023-07-31T02:45:54;16.70;99.90
9975;DHT22;5028;50.974;4.968;2023-07-31T02:48:23;16.80;99.90
9975;DHT22;5028;50.974;4.968;2023-07-31T02:50:53;16.80;99.90
9975;DHT22;5028;50.974;4.968;2023-07-31T02:53:22;16.80;99.90
9975;DHT22;5028;50.974;4.968;2023-07-31T02:55:51;16.80;99.90
9975;DHT22;5028;50.974;4.968;2023-07-31T02:58:19;16.80;99.90
9975;DHT22;5028;50.974;4.968;2023-07-31T03:00:48;16.80;99.90
9975;DHT22;5028;50.974;4.968;2023-07-31T03:03:17;16.80;99.90
9975;DHT22;5028;50.974;4.968;2023-07-31T03:05:46;16.80;99.90
9975;DHT22;5028;50.974;4.968;2023-07-31T03:08:16;16.80;99.90
9975;DHT22;5028;50.974;4.968;2023-07-31T03:10:45;16.70;99.90
9975;DHT22;5028;50.974;4.968;2023-07-31T03:13:14;16.80;99.90
9975;DHT22;5028;50.974;4.968;2023-07-31T03:15:43;16.70;99.90
9975;DHT22;5028;50.974;4.968;2023-07-31T03:18:11;16.70;99.90
9975;DHT22;5028;50.974;4.968;2023-07-31T03:20:42;16.80;99.90
9975;DHT22;5028;50.974;4.968;2023-07-31T03:23:11;16.80;99.90
9975;DHT22;5028;50.974;4.968;2023-07-31T03:25:55;16.80;99.90
9975;DHT22;5028;50.974;4.968;2023-07-31T03:28:24;16.80;99.90
9975;DHT22;5028;50.974;4.968;2023-07-31T03:30:53;16.80;99.90
9975;DHT22;5028;50.974;4.968;2023-07-31T03:33:21;16.80;99.90
9975;DHT22;5028;50.974;4.968;2023-07-31T03:35:50;16.80;99.90
9975;DHT22;5028;50.974;4.968;2023-07-31T03:38:19;16.80;99.90
9975;DHT22;5028;50.974;4.968;2023-07-31T03:40:50;16.80;99.90
9975;DHT22;5028;50.974;4.968;2023-07-31T03:43:18;16.80;99.90
9975;DHT22;5028;50.974;4.968;2023-07-31T03:45:47;16.80;99.90
9975;DHT22;5028;50.974;4.968;2023-07-31T03:48:16;16.80;99.90
9975;DHT22;5028;50.974;4.968;2023-07-31T03:50:45;16.70;99.90
9975;DHT22;5028;50.974;4.968;2023-07-31T03:53:13;16.70;99.90
9975;DHT22;5028;50.974;4.968;2023-07-31T03:55:43;16.80;99.90
9975;DHT22;5028;50.974;4.968;2023-07-31T03:58:13;16.80;99.90
9975;DHT22;5028;50.974;4.968;2023-07-31T04:00:42;16.70;99.90
9975;DHT22;5028;50.974;4.968;2023-07-31T04:03:11;16.70;99.90
9975;DHT22;5028;50.974;4.968;2023-07-31T04:05:39;16.70;99.90
9975;DHT22;5028;50.974;4.968;2023-07-31T04:08:08;16.70;99.90
9975;DHT22;5028;50.974;4.968;2023-07-31T04:10:37;16.70;99.90
9975;DHT22;5028;50.974;4.968;2023-07-31T04:13:05;16.70;99.90
9975;DHT22;5028;50.974;4.968;2023-07-31T04:15:36;16.70;99.90
9975;DHT22;5028;50.974;4.968;2023-07-31T04:18:04;16.70;99.90
9975;DHT22;5028;50.974;4.968;2023-07-31T04:20:34;16.70;99.90
9975;DHT22;5028;50.974;4.968;2023-07-31T04:23:03;16.70;99.90
9975;DHT22;5028;50.974;4.968;2023-07-31T04:25:31;16.70;99.90
9975;DHT22;5028;50.974;4.968;2023-07-31T04:28:02;16.50;99.90
9975;DHT22;5028;50.974;4.968;2023-07-31T04:30:31;16.40;99.90
9975;DHT22;5028;50.974;4.968;2023-07-31T04:33:01;16.30;99.90
9975;DHT22;5028;50.974;4.968;2023-07-31T04:35:30;16.20;99.90
9975;DHT22;5028;50.974;4.968;2023-07-31T04:37:58;16.20;99.90
9975;DHT22;5028;50.974;4.968;2023-07-31T04:40:27;16.20;99.90
9975;DHT22;5028;50.974;4.968;2023-07-31T04:42:56;16.10;99.90
9975;DHT22;5028;50.974;4.968;2023-07-31T04:45:25;16.10;99.90
9975;DHT22;5028;50.974;4.968;2023-07-31T04:47:53;16.10;99.90
9975;DHT22;5028;50.974;4.968;2023-07-31T04:50:24;16.00;99.90
9975;DHT22;5028;50.974;4.968;2023-07-31T04:52:53;16.10;99.90
9975;DHT22;5028;50.974;4.968;2023-07-31T04:55:21;16.10;99.90
9975;DHT22;5028;50.974;4.968;2023-07-31T04:57:50;16.10;99.90
9975;DHT22;5028;50.974;4.968;2023-07-31T05:00:20;16.20;99.90
9975;DHT22;5028;50.974;4.968;2023-07-31T05:02:48;16.20;99.90
9975;DHT22;5028;50.974;4.968;2023-07-31T05:05:17;16.20;99.90
9975;DHT22;5028;50.974;4.968;2023-07-31T05:07:48;16.30;99.90
9975;DHT22;5028;50.974;4.968;2023-07-31T05:10:16;16.30;99.90
9975;DHT22;5028;50.974;4.968;2023-07-31T05:12:45;16.30;99.90
9975;DHT22;5028;50.974;4.968;2023-07-31T05:15:14;16.30;99.90
9975;DHT22;5028;50.974;4.968;2023-07-31T05:17:43;16.30;99.90
9975;DHT22;5028;50.974;4.968;2023-07-31T05:20:12;16.40;99.90
9975;DHT22;5028;50.974;4.968;2023-07-31T05:22:42;16.40;99.90
9975;DHT22;5028;50.974;4.968;2023-07-31T05:25:12;16.40;99.90
9975;DHT22;5028;50.974;4.968;2023-07-31T05:27:41;16.40;99.90
9975;DHT22;5028;50.974;4.968;2023-07-31T05:30:10;16.40;99.90
9975;DHT22;5028;50.974;4.968;2023-07-31T05:32:39;16.40;99.90
9975;DHT22;5028;50.974;4.968;2023-07-31T05:35:08;16.40;99.90
9975;DHT22;5028;50.974;4.968;2023-07-31T05:37:37;16.40;99.90
9975;DHT22;5028;50.974;4.968;2023-07-31T05:40:07;16.40;99.90
9975;DHT22;5028;50.974;4.968;2023-07-31T05:42:38;16.50;99.90
9975;DHT22;5028;50.974;4.968;2023-07-31T05:45:07;16.50;99.90
9975;DHT22;5028;50.974;4.968;2023-07-31T05:47:36;16.40;99.90
9975;DHT22;5028;50.974;4.968;2023-07-31T05:50:05;16.40;99.90
9975;DHT22;5028;50.974;4.968;2023-07-31T05:52:34;16.50;99.90
9975;DHT22;5028;50.974;4.968;2023-07-31T05:55:03;16.50;99.90
9975;DHT22;5028;50.974;4.968;2023-07-31T05:57:31;16.50;99.90
9975;DHT22;5028;50.974;4.968;2023-07-31T06:00:02;16.40;99.90
9975;DHT22;5028;50.974;4.968;2023-07-31T06:02:31;16.40;99.90
9975;DHT22;5028;50.974;4.968;2023-07-31T06:05:05;16.40;99.90
9975;DHT22;5028;50.974;4.968;2023-07-31T06:07:34;16.30;99.90
9975;DHT22;5028;50.974;4.968;2023-07-31T06:10:05;16.30;99.90
9975;DHT22;5028;50.974;4.968;2023-07-31T06:12:34;16.20;99.90
9975;DHT22;5028;50.974;4.968;2023-07-31T06:15:06;16.20;99.90
9975;DHT22;5028;50.974;4.968;2023-07-31T06:17:35;16.20;99.90
9975;DHT22;5028;50.974;4.968;2023-07-31T06:20:05;16.20;99.90
9975;DHT22;5028;50.974;4.968;2023-07-31T06:22:34;16.20;99.90
9975;DHT22;5028;50.974;4.968;2023-07-31T06:25:04;16.20;99.90
9975;DHT22;5028;50.974;4.968;2023-07-31T06:27:32;16.20;99.90
9975;DHT22;5028;50.974;4.968;2023-07-31T06:30:01;16.20;99.90
9975;DHT22;5028;50.974;4.968;2023-07-31T06:32:34;16.20;99.90
9975;DHT22;5028;50.974;4.968;2023-07-31T06:35:04;16.20;99.90
9975;DHT22;5028;50.974;4.968;2023-07-31T06:37:33;16.20;99.90
9975;DHT22;5028;50.974;4.968;2023-07-31T06:40:05;16.10;99.90
9975;DHT22;5028;50.974;4.968;2023-07-31T06:42:36;16.10;99.90
9975;DHT22;5028;50.974;4.968;2023-07-31T06:45:05;16.10;99.90
9975;DHT22;5028;50.974;4.968;2023-07-31T06:47:36;16.20;99.90
9975;DHT22;5028;50.974;4.968;2023-07-31T06:50:05;16.10;99.90
9975;DHT22;5028;50.974;4.968;2023-07-31T06:52:34;16.10;99.90
9975;DHT22;5028;50.974;4.968;2023-07-31T06:55:09;16.20;99.90
9975;DHT22;5028;50.974;4.968;2023-07-31T06:57:46;16.20;99.90
9975;DHT22;5028;50.974;4.968;2023-07-31T07:00:15;16.20;99.90
9975;DHT22;5028;50.974;4.968;2023-07-31T07:02:45;16.30;99.90
9975;DHT22;5028;50.974;4.968;2023-07-31T07:05:15;16.30;99.90
9975;DHT22;5028;50.974;4.968;2023-07-31T07:07:45;16.30;99.90
9975;DHT22;5028;50.974;4.968;2023-07-31T07:10:13;16.20;99.90
9975;DHT22;5028;50.974;4.968;2023-07-31T07:12:42;16.30;99.90
9975;DHT22;5028;50.974;4.968;2023-07-31T07:15:10;16.30;99.90
9975;DHT22;5028;50.974;4.968;2023-07-31T07:17:39;16.30;99.90
9975;DHT22;5028;50.974;4.968;2023-07-31T07:20:10;16.40;99.90
9975;DHT22;5028;50.974;4.968;2023-07-31T07:22:39;16.50;99.90
9975;DHT22;5028;50.974;4.968;2023-07-31T07:25:09;16.50;99.90
9975;DHT22;5028;50.974;4.968;2023-07-31T07:27:38;16.50;99.90
9975;DHT22;5028;50.974;4.968;2023-07-31T07:30:07;16.50;99.90
9975;DHT22;5028;50.974;4.968;2023-07-31T07:32:36;16.60;99.90
9975;DHT22;5028;50.974;4.968;2023-07-31T07:35:06;16.50;99.90
9975;DHT22;5028;50.974;4.968;2023-07-31T07:37:36;16.50;99.90
9975;DHT22;5028;50.974;4.968;2023-07-31T07:40:06;16.60;99.90
9975;DHT22;5028;50.974;4.968;2023-07-31T07:42:35;16.60;99.90
9975;DHT22;5028;50.974;4.968;2023-07-31T07:45:05;16.60;99.90
9975;DHT22;5028;50.974;4.968;2023-07-31T07:47:34;16.70;99.90
9975;DHT22;5028;50.974;4.968;2023-07-31T07:50:03;16.80;99.90
9975;DHT22;5028;50.974;4.968;2023-07-31T07:52:37;16.80;99.90
9975;DHT22;5028;50.974;4.968;2023-07-31T07:55:06;16.90;99.90
9975;DHT22;5028;50.974;4.968;2023-07-31T07:57:35;16.90;99.90
9975;DHT22;5028;50.974;4.968;2023-07-31T08:00:04;16.90;99.90
9975;DHT22;5028;50.974;4.968;2023-07-31T08:02:33;16.90;99.90
9975;DHT22;5028;50.974;4.968;2023-07-31T08:05:02;16.90;99.90
9975;DHT22;5028;50.974;4.968;2023-07-31T08:07:30;16.90;99.90
9975;DHT22;5028;50.974;4.968;2023-07-31T08:10:00;17.00;99.90
9975;DHT22;5028;50.974;4.968;2023-07-31T08:12:29;16.90;99.90
9975;DHT22;5028;50.974;4.968;2023-07-31T08:14:58;17.00;99.90
9975;DHT22;5028;50.974;4.968;2023-07-31T08:17:27;17.10;99.90
9975;DHT22;5028;50.974;4.968;2023-07-31T08:19:56;17.10;99.90
9975;DHT22;5028;50.974;4.968;2023-07-31T08:22:25;17.10;99.90
9975;DHT22;5028;50.974;4.968;2023-07-31T08:24:54;17.20;99.90
9975;DHT22;5028;50.974;4.968;2023-07-31T08:27:24;17.20;99.90
9975;DHT22;5028;50.974;4.968;2023-07-31T08:29:53;17.20;99.90
9975;DHT22;5028;50.974;4.968;2023-07-31T08:32:22;17.00;99.90
9975;DHT22;5028;50.974;4.968;2023-07-31T08:34:50;17.10;99.90
9975;DHT22;5028;50.974;4.968;2023-07-31T08:37:19;17.10;99.90
9975;DHT22;5028;50.974;4.968;2023-07-31T08:39:48;17.20;99.90
9975;DHT22;5028;50.974;4.968;2023-07-31T08:42:17;17.20;99.90
9975;DHT22;5028;50.974;4.968;2023-07-31T08:44:47;17.40;99.90
9975;DHT22;5028;50.974;4.968;2023-07-31T08:47:17;17.30;99.90
9975;DHT22;5028;50.974;4.968;2023-07-31T08:49:48;17.30;99.90
9975;DHT22;5028;50.974;4.968;2023-07-31T08:52:17;17.40;99.90
9975;DHT22;5028;50.974;4.968;2023-07-31T08:54:46;17.40;99.90
9975;DHT22;5028;50.974;4.968;2023-07-31T08:57:14;17.40;99.90
9975;DHT22;5028;50.974;4.968;2023-07-31T08:59:44;17.40;99.90
9975;DHT22;5028;50.974;4.968;2023-07-31T09:02:15;17.40;99.90
9975;DHT22;5028;50.974;4.968;2023-07-31T09:04:46;17.40;99.90
9975;DHT22;5028;50.974;4.968;2023-07-31T09:07:15;17.30;99.90
9975;DHT22;5028;50.974;4.968;2023-07-31T09:09:46;17.30;99.90
9975;DHT22;5028;50.974;4.968;2023-07-31T09:12:14;17.30;99.90
9975;DHT22;5028;50.974;4.968;2023-07-31T09:14:45;17.30;99.90
9975;DHT22;5028;50.974;4.968;2023-07-31T09:17:16;17.30;99.90
9975;DHT22;5028;50.974;4.968;2023-07-31T09:19:45;17.40;99.90
9975;DHT22;5028;50.974;4.968;2023-07-31T09:22:14;17.40;99.90
9975;DHT22;5028;50.974;4.968;2023-07-31T09:24:43;17.30;99.90
9975;DHT22;5028;50.974;4.968;2023-07-31T09:27:11;17.30;99.90
9975;DHT22;5028;50.974;4.968;2023-07-31T09:30:00;17.30;99.90
9975;DHT22;5028;50.974;4.968;2023-07-31T09:32:31;17.40;99.90
9975;DHT22;5028;50.974;4.968;2023-07-31T09:35:01;17.30;99.90
9975;DHT22;5028;50.974;4.968;2023-07-31T09:37:40;17.30;99.90
9975;DHT22;5028;50.974;4.968;2023-07-31T09:40:11;17.30;99.90
9975;DHT22;5028;50.974;4.968;2023-07-31T09:42:53;17.30;99.90
9975;DHT22;5028;50.974;4.968;2023-07-31T09:45:23;17.40;99.90
9975;DHT22;5028;50.974;4.968;2023-07-31T09:48:07;17.40;99.90
9975;DHT22;5028;50.974;4.968;2023-07-31T09:50:40;17.40;99.90
9975;DHT22;5028;50.974;4.968;2023-07-31T09:53:09;17.40;99.90
9975;DHT22;5028;50.974;4.968;2023-07-31T09:55:40;17.50;99.90
9975;DHT22;5028;50.974;4.968;2023-07-31T09:58:11;17.50;99.90
9975;DHT22;5028;50.974;4.968;2023-07-31T10:00:42;17.60;99.90
9975;DHT22;5028;50.974;4.968;2023-07-31T10:03:11;17.70;99.90
9975;DHT22;5028;50.974;4.968;2023-07-31T10:05:42;17.70;99.90
9975;DHT22;5028;50.974;4.968;2023-07-31T10:08:13;17.70;99.90
9975;DHT22;5028;50.974;4.968;2023-07-31T10:10:44;17.90;99.90
9975;DHT22;5028;50.974;4.968;2023-07-31T10:13:14;18.00;99.90
9975;DHT22;5028;50.974;4.968;2023-07-31T10:15:45;18.10;99.90
9975;DHT22;5028;50.974;4.968;2023-07-31T10:18:15;18.20;99.90
9975;DHT22;5028;50.974;4.968;2023-07-31T10:20:45;18.30;99.90
9975;DHT22;5028;50.974;4.968;2023-07-31T10:23:14;18.50;99.90
9975;DHT22;5028;50.974;4.968;2023-07-31T10:25:45;18.60;99.90
9975;DHT22;5028;50.974;4.968;2023-07-31T10:28:14;18.60;99.90
9975;DHT22;5028;50.974;4.968;2023-07-31T10:30:45;18.70;99.90
9975;DHT22;5028;50.974;4.968;2023-07-31T10:33:17;18.70;99.90
9975;DHT22;5028;50.974;4.968;2023-07-31T10:35:47;18.60;99.90
9975;DHT22;5028;50.974;4.968;2023-07-31T10:38:18;18.60;99.90
9975;DHT22;5028;50.974;4.968;2023-07-31T10:40:47;18.70;99.90
9975;DHT22;5028;50.974;4.968;2023-07-31T10:43:24;18.80;99.90
9975;DHT22;5028;50.974;4.968;2023-07-31T10:45:56;19.00;99.90
9975;DHT22;5028;50.974;4.968;2023-07-31T10:48:24;19.10;99.90
9975;DHT22;5028;50.974;4.968;2023-07-31T10:51:01;19.20;99.90
9975;DHT22;5028;50.974;4.968;2023-07-31T10:53:32;19.30;99.90
9975;DHT22;5028;50.974;4.968;2023-07-31T10:56:01;19.30;99.90
9975;DHT22;5028;50.974;4.968;2023-07-31T10:58:31;19.30;99.90
9975;DHT22;5028;50.974;4.968;2023-07-31T11:01:03;19.10;99.90
9975;DHT22;5028;50.974;4.968;2023-07-31T11:03:42;19.00;99.90
9975;DHT22;5028;50.974;4.968;2023-07-31T11:06:12;19.10;99.90
9975;DHT22;5028;50.974;4.968;2023-07-31T11:08:46;19.10;99.90
9975;DHT22;5028;50.974;4.968;2023-07-31T11:11:16;19.00;99.90
9975;DHT22;5028;50.974;4.968;2023-07-31T11:13:46;19.20;99.90
9975;DHT22;5028;50.974;4.968;2023-07-31T11:16:20;19.20;99.90
9975;DHT22;5028;50.974;4.968;2023-07-31T11:18:49;19.20;99.90
9975;DHT22;5028;50.974;4.968;2023-07-31T11:21:20;19.10;99.90
9975;DHT22;5028;50.974;4.968;2023-07-31T11:23:50;19.20;99.90
9975;DHT22;5028;50.974;4.968;2023-07-31T11:26:20;19.30;99.90
9975;DHT22;5028;50.974;4.968;2023-07-31T11:28:50;19.40;99.90
9975;DHT22;5028;50.974;4.968;2023-07-31T11:31:20;19.70;99.90
9975;DHT22;5028;50.974;4.968;2023-07-31T11:33:49;20.00;99.90
9975;DHT22;5028;50.974;4.968;2023-07-31T11:36:21;20.10;99.90
9975;DHT22;5028;50.974;4.968;2023-07-31T11:38:50;20.20;99.90
9975;DHT22;5028;50.974;4.968;2023-07-31T11:41:19;20.10;99.90
9975;DHT22;5028;50.974;4.968;2023-07-31T11:43:47;20.30;99.90
9975;DHT22;5028;50.974;4.968;2023-07-31T11:46:16;20.20;99.90
9975;DHT22;5028;50.974;4.968;2023-07-31T11:48:48;20.20;99.90
9975;DHT22;5028;50.974;4.968;2023-07-31T11:51:16;20.10;99.90
9975;DHT22;5028;50.974;4.968;2023-07-31T11:53:47;20.00;99.90
9975;DHT22;5028;50.974;4.968;2023-07-31T11:56:18;20.10;99.90
9975;DHT22;5028;50.974;4.968;2023-07-31T11:58:49;20.10;99.90
9975;DHT22;5028;50.974;4.968;2023-07-31T12:01:19;20.10;99.90
9975;DHT22;5028;50.974;4.968;2023-07-31T12:03:50;20.30;99.90
9975;DHT22;5028;50.974;4.968;2023-07-31T12:06:19;20.50;99.90
9975;DHT22;5028;50.974;4.968;2023-07-31T12:08:48;20.40;99.90
9975;DHT22;5028;50.974;4.968;2023-07-31T12:11:18;20.20;99.90
9975;DHT22;5028;50.974;4.968;2023-07-31T12:13:47;20.10;99.90
9975;DHT22;5028;50.974;4.968;2023-07-31T12:16:16;20.00;99.90
9975;DHT22;5028;50.974;4.968;2023-07-31T12:18:45;20.00;99.90
9975;DHT22;5028;50.974;4.968;2023-07-31T12:21:19;20.00;99.90
9975;DHT22;5028;50.974;4.968;2023-07-31T12:23:48;20.10;99.90
9975;DHT22;5028;50.974;4.968;2023-07-31T12:26:17;20.20;99.90
9975;DHT22;5028;50.974;4.968;2023-07-31T12:28:48;20.50;99.90
9975;DHT22;5028;50.974;4.968;2023-07-31T12:31:18;20.70;99.90
9975;DHT22;5028;50.974;4.968;2023-07-31T12:33:48;20.90;99.90
9975;DHT22;5028;50.974;4.968;2023-07-31T12:36:21;21.10;99.90
9975;DHT22;5028;50.974;4.968;2023-07-31T12:38:51;21.10;99.90
9975;DHT22;5028;50.974;4.968;2023-07-31T12:41:20;20.90;99.90
9975;DHT22;5028;50.974;4.968;2023-07-31T12:43:50;21.00;99.90
9975;DHT22;5028;50.974;4.968;2023-07-31T12:46:18;20.90;99.90
9975;DHT22;5028;50.974;4.968;2023-07-31T12:48:47;20.90;99.90
9975;DHT22;5028;50.974;4.968;2023-07-31T12:51:16;20.70;99.90
9975;DHT22;5028;50.974;4.968;2023-07-31T12:53:46;20.70;99.90
9975;DHT22;5028;50.974;4.968;2023-07-31T12:56:15;20.50;99.90
9975;DHT22;5028;50.974;4.968;2023-07-31T12:58:44;20.40;99.90
9975;DHT22;5028;50.974;4.968;2023-07-31T13:01:13;20.40;99.90
9975;DHT22;5028;50.974;4.968;2023-07-31T13:03:41;20.50;99.90
9975;DHT22;5028;50.974;4.968;2023-07-31T13:06:10;20.60;99.90
9975;DHT22;5028;50.974;4.968;2023-07-31T13:08:39;20.70;99.90
9975;DHT22;5028;50.974;4.968;2023-07-31T13:11:10;20.70;99.90
9975;DHT22;5028;50.974;4.968;2023-07-31T13:13:39;20.60;99.90
9975;DHT22;5028;50.974;4.968;2023-07-31T13:16:07;20.40;99.90
9975;DHT22;5028;50.974;4.968;2023-07-31T13:18:36;20.40;99.90
9975;DHT22;5028;50.974;4.968;2023-07-31T13:21:05;20.40;99.90
9975;DHT22;5028;50.974;4.968;2023-07-31T13:23:33;20.30;99.90
9975;DHT22;5028;50.974;4.968;2023-07-31T13:26:02;20.30;99.90
9975;DHT22;5028;50.974;4.968;2023-07-31T13:28:32;20.30;99.90
9975;DHT22;5028;50.974;4.968;2023-07-31T13:31:01;20.30;99.90
9975;DHT22;5028;50.974;4.968;2023-07-31T13:33:30;20.20;99.90
9975;DHT22;5028;50.974;4.968;2023-07-31T13:36:05;20.10;99.90
9975;DHT22;5028;50.974;4.968;2023-07-31T13:38:33;20.00;99.90
9975;DHT22;5028;50.974;4.968;2023-07-31T13:41:02;20.00;99.90
9975;DHT22;5028;50.974;4.968;2023-07-31T13:43:34;19.90;99.90
9975;DHT22;5028;50.974;4.968;2023-07-31T13:46:03;19.90;99.90
9975;DHT22;5028;50.974;4.968;2023-07-31T13:48:34;19.80;99.90
9975;DHT22;5028;50.974;4.968;2023-07-31T13:51:03;19.80;99.90
9975;DHT22;5028;50.974;4.968;2023-07-31T13:53:32;19.80;99.90
9975;DHT22;5028;50.974;4.968;2023-07-31T13:56:01;19.80;99.90
9975;DHT22;5028;50.974;4.968;2023-07-31T13:58:29;19.70;99.90
9975;DHT22;5028;50.974;4.968;2023-07-31T14:00:59;19.50;99.90
9975;DHT22;5028;50.974;4.968;2023-07-31T14:03:28;19.30;99.90
9975;DHT22;5028;50.974;4.968;2023-07-31T14:05:57;19.20;99.90
9975;DHT22;5028;50.974;4.968;2023-07-31T14:08:26;19.00;99.90
9975;DHT22;5028;50.974;4.968;2023-07-31T14:10:55;18.90;99.90
9975;DHT22;5028;50.974;4.968;2023-07-31T14:13:24;18.70;99.90
9975;DHT22;5028;50.974;4.968;2023-07-31T14:15:53;18.30;99.90
9975;DHT22;5028;50.974;4.968;2023-07-31T14:18:23;18.10;99.90
9975;DHT22;5028;50.974;4.968;2023-07-31T14:20:52;18.10;99.90
9975;DHT22;5028;50.974;4.968;2023-07-31T14:23:21;18.10;99.90
9975;DHT22;5028;50.974;4.968;2023-07-31T14:25:49;18.20;99.90
9975;DHT22;5028;50.974;4.968;2023-07-31T14:28:18;18.10;99.90
9975;DHT22;5028;50.974;4.968;2023-07-31T14:30:47;18.10;99.90
9975;DHT22;5028;50.974;4.968;2023-07-31T14:33:16;18.10;99.90
9975;DHT22;5028;50.974;4.968;2023-07-31T14:35:46;18.20;99.90
9975;DHT22;5028;50.974;4.968;2023-07-31T14:38:15;18.10;99.90
9975;DHT22;5028;50.974;4.968;2023-07-31T14:40:44;18.10;99.90
9975;DHT22;5028;50.974;4.968;2023-07-31T14:43:13;18.00;99.90
9975;DHT22;5028;50.974;4.968;2023-07-31T14:45:42;18.00;99.90
9975;DHT22;5028;50.974;4.968;2023-07-31T14:48:11;18.00;99.90
9975;DHT22;5028;50.974;4.968;2023-07-31T14:50:40;18.00;99.90
9975;DHT22;5028;50.974;4.968;2023-07-31T14:53:10;17.90;99.90
9975;DHT22;5028;50.974;4.968;2023-07-31T14:55:39;18.00;99.90
9975;DHT22;5028;50.974;4.968;2023-07-31T14:58:08;18.00;99.90
9975;DHT22;5028;50.974;4.968;2023-07-31T15:00:39;18.00;99.90
9975;DHT22;5028;50.974;4.968;2023-07-31T15:03:07;18.00;99.90
9975;DHT22;5028;50.974;4.968;2023-07-31T15:05:36;18.00;99.90
9975;DHT22;5028;50.974;4.968;2023-07-31T15:08:05;18.00;99.90
9975;DHT22;5028;50.974;4.968;2023-07-31T15:10:35;18.00;99.90
9975;DHT22;5028;50.974;4.968;2023-07-31T15:13:04;18.00;99.90
9975;DHT22;5028;50.974;4.968;2023-07-31T15:15:32;18.00;99.90
9975;DHT22;5028;50.974;4.968;2023-07-31T15:18:01;18.00;99.90
9975;DHT22;5028;50.974;4.968;2023-07-31T15:20:30;18.00;99.90
9975;DHT22;5028;50.974;4.968;2023-07-31T15:22:59;17.90;99.90
9975;DHT22;5028;50.974;4.968;2023-07-31T15:25:29;17.90;99.90
9975;DHT22;5028;50.974;4.968;2023-07-31T15:27:59;17.90;99.90
9975;DHT22;5028;50.974;4.968;2023-07-31T15:30:29;17.90;99.90
9975;DHT22;5028;50.974;4.968;2023-07-31T15:32:58;17.90;99.90
9975;DHT22;5028;50.974;4.968;2023-07-31T15:35:27;17.90;99.90
9975;DHT22;5028;50.974;4.968;2023-07-31T15:37:56;17.90;99.90
9975;DHT22;5028;50.974;4.968;2023-07-31T15:40:24;17.90;99.90
9975;DHT22;5028;50.974;4.968;2023-07-31T15:42:53;17.90;99.90
9975;DHT22;5028;50.974;4.968;2023-07-31T15:45:24;17.90;99.90
9975;DHT22;5028;50.974;4.968;2023-07-31T15:47:52;17.80;99.90
9975;DHT22;5028;50.974;4.968;2023-07-31T15:50:21;17.90;99.90
9975;DHT22;5028;50.974;4.968;2023-07-31T15:52:50;17.80;99.90
9975;DHT22;5028;50.974;4.968;2023-07-31T15:55:19;17.80;99.90
9975;DHT22;5028;50.974;4.968;2023-07-31T15:57:48;17.80;99.90
9975;DHT22;5028;50.974;4.968;2023-07-31T16:00:17;17.80;99.90
9975;DHT22;5028;50.974;4.968;2023-07-31T16:02:48;17.80;99.90
9975;DHT22;5028;50.974;4.968;2023-07-31T16:05:18;17.80;99.90
9975;DHT22;5028;50.974;4.968;2023-07-31T16:07:46;17.80;99.90
9975;DHT22;5028;50.974;4.968;2023-07-31T16:10:16;17.70;99.90
9975;DHT22;5028;50.974;4.968;2023-07-31T16:12:45;17.80;99.90
9975;DHT22;5028;50.974;4.968;2023-07-31T16:15:13;17.80;99.90
9975;DHT22;5028;50.974;4.968;2023-07-31T16:17:42;17.80;99.90